Time;durP1;ratioP1;P1;durP2;ratioP2;P2;SDS_P1;SDS_P2;PMS_P1;PMS_P2;Temp;Humidity;BMP_temperature;BMP_pressure;BME280_temperature;BME280_humidity;BME280_pressure;Samples;Min_cycle;Max_cycle;Signal;HPM_P1;HPM_P2
2021/07/05 00:00:52;;;;;;;0.20;0.20;;;;;;;9.24;94.99;97889.31;4992790;28;20049;-63
2021/07/05 00:03:18;;;;;;;0.20;0.20;;;;;;;9.25;94.95;97887.44;4993706;28;20034;-64
2021/07/05 00:05:43;;;;;;;0.10;0.10;;;;;;;9.28;94.89;97882.28;4993062;28;20034;-64
2021/07/05 00:08:09;;;;;;;0.17;0.17;;;;;;;9.35;95.08;97889.47;4992142;28;20077;-65
2021/07/05 00:10:35;;;;;;;0.20;0.20;;;;;;;9.37;94.97;97890.09;4993582;28;20046;-63
2021/07/05 00:13:02;;;;;;;0.10;0.10;;;;;;;9.35;94.90;97894.97;4993401;28;20500;-64
2021/07/05 00:15:31;;;;;;;0.10;0.10;;;;;;;9.33;94.63;97895.22;4993101;28;20420;-64
2021/07/05 00:18:01;;;;;;;0.10;0.10;;;;;;;9.34;94.92;97891.41;4993901;28;20030;-63
2021/07/05 00:20:29;;;;;;;0.10;0.10;;;;;;;9.41;95.13;97894.00;4975822;28;20433;-64
2021/07/05 00:22:56;;;;;;;0.10;0.10;;;;;;;9.41;94.81;97892.06;4993263;28;20088;-64
2021/07/05 00:25:23;;;;;;;0.10;0.10;;;;;;;9.41;94.42;97900.28;4991833;28;20578;-64
2021/07/05 00:27:49;;;;;;;0.10;0.10;;;;;;;9.41;94.82;97903.03;4993119;28;20534;-65
2021/07/05 00:30:16;;;;;;;0.17;0.17;;;;;;;9.42;94.80;97892.88;4975704;28;20030;-64
2021/07/05 00:32:44;;;;;;;0.20;0.20;;;;;;;9.44;94.64;97902.53;4993284;28;20034;-65
2021/07/05 00:35:10;;;;;;;0.20;0.20;;;;;;;9.43;94.91;97906.34;4993368;28;20041;-64
2021/07/05 00:37:36;;;;;;;0.10;0.10;;;;;;;9.46;94.69;97910.50;4993212;28;20033;-65
2021/07/05 00:40:04;;;;;;;0.10;0.10;;;;;;;9.46;94.95;97916.78;4993043;28;20038;-64
2021/07/05 00:42:30;;;;;;;0.20;0.20;;;;;;;9.45;94.54;97917.91;4993284;28;20034;-64
2021/07/05 00:44:55;;;;;;;0.10;0.10;;;;;;;9.42;94.34;97909.31;4992183;28;20037;-63
2021/07/05 00:47:21;;;;;;;0.10;0.10;;;;;;;9.41;94.66;97919.47;4975485;28;20065;-63
2021/07/05 00:49:47;;;;;;;0.10;0.10;;;;;;;9.44;94.37;97923.63;4993066;28;20049;-63
2021/07/05 00:52:13;;;;;;;0.10;0.10;;;;;;;9.44;94.59;97918.16;4993190;28;20027;-64
2021/07/05 00:54:40;;;;;;;0.10;0.10;;;;;;;9.45;94.59;97923.38;4975595;28;20393;-63
2021/07/05 00:57:19;;;;;;;0.10;0.10;;;;;;;9.50;94.73;97919.88;4993083;28;20030;-64
2021/07/05 00:59:48;;;;;;;0.10;0.10;;;;;;;9.51;94.73;97923.44;4992967;28;20416;-64
2021/07/05 01:02:15;;;;;;;0.10;0.10;;;;;;;9.52;94.57;97925.94;4975471;28;20038;-64
2021/07/05 01:04:40;;;;;;;0.10;0.10;;;;;;;9.54;94.93;97923.78;4975652;28;20037;-65
2021/07/05 01:07:06;;;;;;;0.10;0.10;;;;;;;9.54;94.53;97932.00;4993114;28;20023;-63
2021/07/05 01:09:32;;;;;;;0.10;0.10;;;;;;;9.55;94.44;97925.44;4992784;28;20129;-64
2021/07/05 01:11:58;;;;;;;0.20;0.20;;;;;;;9.55;94.30;97941.06;4975221;28;20125;-65
2021/07/05 01:14:24;;;;;;;0.10;0.10;;;;;;;9.54;94.29;97933.91;4992542;28;20083;-64
2021/07/05 01:16:49;;;;;;;0.10;0.10;;;;;;;9.57;94.45;97944.38;4994318;28;20036;-64
2021/07/05 01:19:15;;;;;;;0.10;0.10;;;;;;;9.62;94.55;97941.72;4996400;28;20022;-64
2021/07/05 01:21:41;;;;;;;0.13;0.13;;;;;;;9.60;94.63;97943.88;4996468;28;20117;-64
2021/07/05 01:24:07;;;;;;;0.10;0.10;;;;;;;9.65;94.41;97943.97;4978933;28;20030;-63
2021/07/05 01:26:38;;;;;;;0.20;0.20;;;;;;;9.67;94.63;97955.47;4996427;28;20523;-63
2021/07/05 01:29:06;;;;;;;0.10;0.10;;;;;;;9.67;94.63;97938.22;4996283;28;20503;-62
2021/07/05 01:31:34;;;;;;;0.10;0.10;;;;;;;9.70;94.39;97948.69;4978668;28;20034;-63
2021/07/05 01:34:00;;;;;;;0.15;0.15;;;;;;;9.85;94.47;97945.34;4996130;28;20030;-63
2021/07/05 01:36:26;;;;;;;0.13;0.13;;;;;;;10.02;94.65;97962.59;4978658;28;20030;-62
2021/07/05 01:38:52;;;;;;;0.20;0.20;;;;;;;10.06;94.22;97966.50;4996354;28;20030;-62
2021/07/05 01:41:19;;;;;;;0.10;0.10;;;;;;;10.05;94.02;97967.56;4994684;28;20117;-63
2021/07/05 01:43:46;;;;;;;0.10;0.10;;;;;;;10.10;93.92;97973.16;4996225;28;20033;-62
2021/07/05 01:46:11;;;;;;;0.10;0.10;;;;;;;10.15;93.84;97962.22;4996440;28;20037;-63
2021/07/05 01:48:37;;;;;;;0.10;0.10;;;;;;;10.09;93.99;97974.22;4996354;28;20500;-62
2021/07/05 01:51:03;;;;;;;0.20;0.20;;;;;;;10.04;93.75;97963.19;4995854;28;20049;-63
2021/07/05 01:53:29;;;;;;;0.20;0.20;;;;;;;10.07;93.63;97967.31;4996142;28;20026;-61
2021/07/05 01:55:56;;;;;;;0.20;0.20;;;;;;;10.25;93.63;97971.72;4996123;28;20026;-62
2021/07/05 01:58:22;;;;;;;0.20;0.20;;;;;;;10.51;93.81;97970.13;4996208;28;20177;-61
2021/07/05 02:00:49;;;;;;;0.55;0.55;;;;;;;10.92;93.41;97964.31;4995675;28;20042;-62
2021/07/05 02:03:17;;;;;;;0.20;0.20;;;;;;;11.85;92.82;97964.06;4995739;28;20042;-63
2021/07/05 02:05:47;;;;;;;0.17;0.17;;;;;;;12.60;91.78;97963.97;4995508;28;20038;-65
2021/07/05 02:08:14;;;;;;;0.10;0.10;;;;;;;12.81;90.70;97966.81;4978979;28;20378;-65
2021/07/05 02:10:41;;;;;;;0.15;0.15;;;;;;;12.74;90.48;97958.78;4995501;28;20043;-64
2021/07/05 02:13:17;;;;;;;0.20;0.20;;;;;;;12.75;90.38;97967.88;4995466;28;20088;-66
2021/07/05 02:15:44;;;;;;;0.20;0.20;;;;;;;12.64;90.07;97978.03;4995830;28;20046;-65
2021/07/05 02:18:10;;;;;;;0.10;0.10;;;;;;;12.60;90.44;97976.91;4995591;28;20030;-64
2021/07/05 02:20:37;;;;;;;0.10;0.10;;;;;;;12.48;90.04;97979.88;4977721;28;20038;-64
2021/07/05 02:23:05;;;;;;;0.10;0.10;;;;;;;12.38;90.52;97968.81;4995414;28;20395;-65
2021/07/05 02:25:33;;;;;;;0.20;0.20;;;;;;;12.33;90.45;97966.03;4995300;28;20073;-64
2021/07/05 02:28:20;;;;;;;0.10;0.10;;;;;;;12.27;90.64;97968.75;4994929;28;20030;-65
2021/07/05 02:30:48;;;;;;;0.10;0.10;;;;;;;12.12;90.62;97970.56;4995527;28;20104;-66
2021/07/05 02:33:16;;;;;;;0.10;0.10;;;;;;;12.00;90.54;97973.53;4994959;28;20041;-65
2021/07/05 02:35:42;;;;;;;0.10;0.10;;;;;;;12.14;91.49;97980.22;4995439;28;20124;-66
2021/07/05 02:38:12;;;;;;;0.20;0.20;;;;;;;12.27;91.25;97981.69;4977620;28;20084;-64
2021/07/05 02:40:45;;;;;;;0.10;0.10;;;;;;;12.40;91.16;97986.72;4995095;28;20123;-65
2021/07/05 02:43:12;;;;;;;0.20;0.20;;;;;;;12.54;91.56;97983.47;4995590;28;20034;-64
2021/07/05 02:45:41;;;;;;;0.10;0.10;;;;;;;12.66;91.71;97997.88;4995201;28;20519;-64
2021/07/05 02:48:10;;;;;;;1.67;1.27;;;;;;;12.72;91.96;97998.72;4995100;28;20060;-66
2021/07/05 02:50:37;;;;;;;0.70;0.35;;;;;;;12.69;91.54;98002.00;4995406;28;20034;-63
2021/07/05 02:53:08;;;;;;;0.10;0.10;;;;;;;12.59;91.41;98003.63;4977313;28;20027;-64
2021/07/05 02:55:34;;;;;;;0.10;0.10;;;;;;;12.66;92.17;97999.78;4994533;28;20411;-64
2021/07/05 02:58:01;;;;;;;0.10;0.10;;;;;;;12.65;91.58;98003.63;4995108;28;20093;-63
2021/07/05 03:00:32;;;;;;;0.10;0.10;;;;;;;12.59;91.51;97995.34;4994582;28;20436;-63
2021/07/05 03:02:58;;;;;;;0.15;0.15;;;;;;;12.60;91.71;98002.53;4994616;28;20393;-63
2021/07/05 03:05:27;;;;;;;0.10;0.10;;;;;;;12.75;91.78;98003.69;4995055;28;20543;-64
2021/07/05 03:07:53;;;;;;;0.10;0.10;;;;;;;12.90;91.76;98003.75;4994994;28;20096;-64
2021/07/05 03:10:24;;;;;;;0.10;0.10;;;;;;;13.05;91.55;98004.91;4994262;28;20100;-62
2021/07/05 03:12:50;;;;;;;0.10;0.10;;;;;;;13.15;91.17;98010.44;4994580;28;20089;-62
2021/07/05 03:15:17;;;;;;;0.10;0.10;;;;;;;13.47;91.03;98010.28;4994314;28;20461;-63
2021/07/05 03:17:45;;;;;;;0.10;0.10;;;;;;;13.81;90.76;98008.94;4994537;28;20088;-64
2021/07/05 03:20:14;;;;;;;0.10;0.10;;;;;;;14.26;90.27;98018.25;4992935;28;20031;-63
2021/07/05 03:22:41;;;;;;;0.10;0.10;;;;;;;14.77;89.73;98019.28;4994593;28;20044;-64
2021/07/05 03:25:09;;;;;;;0.10;0.10;;;;;;;14.97;88.80;98018.38;4993893;28;20034;-64
2021/07/05 03:27:35;;;;;;;0.10;0.10;;;;;;;15.06;88.67;98034.09;4994254;28;20093;-64
2021/07/05 03:30:03;;;;;;;0.10;0.10;;;;;;;15.24;88.15;98029.84;4994291;28;20038;-64
2021/07/05 03:32:29;;;;;;;0.10;0.10;;;;;;;15.68;87.69;98036.50;4994253;28;20385;-63
2021/07/05 03:34:55;;;;;;;0.10;0.10;;;;;;;16.33;86.99;98035.47;4994080;28;20041;-63
2021/07/05 03:37:21;;;;;;;0.20;0.20;;;;;;;16.92;85.38;98038.19;4994293;28;20042;-63
2021/07/05 03:39:46;;;;;;;0.20;0.20;;;;;;;18.46;83.16;98035.94;4993196;28;20440;-64
2021/07/05 03:42:12;;;;;;;0.10;0.10;;;;;;;19.49;81.26;98036.66;4976384;28;20034;-63
2021/07/05 03:44:38;;;;;;;0.10;0.10;;;;;;;19.90;80.11;98051.63;4994028;28;20038;-63
2021/07/05 03:47:04;;;;;;;0.10;0.10;;;;;;;20.39;79.08;98049.03;4993997;28;20045;-64
2021/07/05 03:49:30;;;;;;;0.10;0.10;;;;;;;22.54;74.64;98035.41;4992922;28;20042;-64
2021/07/05 03:51:55;;;;;;;0.10;0.10;;;;;;;23.52;72.64;98049.50;4993432;28;20121;-63
2021/07/05 03:54:21;;;;;;;0.10;0.10;;;;;;;24.25;71.73;98051.09;4976179;28;20527;-63
2021/07/05 03:56:47;;;;;;;0.10;0.10;;;;;;;25.39;69.45;98058.28;4994181;28;20113;-63
2021/07/05 03:59:14;;;;;;;0.10;0.10;;;;;;;26.06;67.88;98032.66;4993797;28;20038;-64
2021/07/05 04:01:40;;;;;;;0.28;0.28;;;;;;;27.08;66.77;98032.22;4993561;28;20065;-63
2021/07/05 04:04:06;;;;;;;0.10;0.10;;;;;;;27.96;65.37;98042.34;4993520;28;20112;-64
2021/07/05 04:06:32;;;;;;;0.10;0.10;;;;;;;28.09;65.45;98039.41;4993581;28;20038;-63
2021/07/05 04:08:59;;;;;;;0.10;0.10;;;;;;;28.18;66.22;98048.50;4993685;28;20512;-64
2021/07/05 04:11:26;;;;;;;0.10;0.10;;;;;;;28.56;66.43;98046.81;4993612;28;20407;-65
2021/07/05 04:13:52;;;;;;;0.10;0.10;;;;;;;28.97;66.13;98035.88;4975438;28;20105;-66
2021/07/05 04:16:17;;;;;;;0.10;0.10;;;;;;;29.26;65.89;98046.94;4993548;28;20034;-65
2021/07/05 04:18:44;;;;;;;0.10;0.10;;;;;;;28.96;65.60;98051.25;4993156;28;20085;-65
2021/07/05 04:21:10;;;;;;;0.10;0.10;;;;;;;28.64;66.26;98042.16;4993174;28;20455;-64
2021/07/05 04:23:36;;;;;;;0.10;0.10;;;;;;;28.50;65.48;98048.31;4975900;28;20033;-63
2021/07/05 04:26:02;;;;;;;0.10;0.10;;;;;;;28.80;66.59;98048.53;4993375;28;20034;-64
2021/07/05 04:28:30;;;;;;;0.10;0.10;;;;;;;29.57;66.69;98054.28;4993671;28;20034;-64
2021/07/05 04:30:56;;;;;;;0.10;0.10;;;;;;;30.09;65.92;98045.34;4975583;28;20034;-63
2021/07/05 04:33:22;;;;;;;0.10;0.10;;;;;;;30.49;66.86;98041.84;4993238;28;20034;-65
2021/07/05 04:35:48;;;;;;;0.10;0.10;;;;;;;31.17;65.99;98040.88;4993226;28;20198;-65
2021/07/05 04:38:14;;;;;;;0.10;0.10;;;;;;;31.60;65.33;98042.06;4992921;28;20152;-64
2021/07/05 04:40:41;;;;;;;0.10;0.10;;;;;;;31.94;65.67;98038.22;4993365;28;20034;-66
2021/07/05 04:43:09;;;;;;;0.10;0.10;;;;;;;31.42;64.81;98030.56;4993109;28;20030;-64
2021/07/05 04:45:36;;;;;;;0.22;0.22;;;;;;;31.31;65.26;98046.69;4993562;28;20073;-65
2021/07/05 04:48:04;;;;;;;0.10;0.10;;;;;;;31.45;65.65;98023.31;4993024;28;20560;-64
2021/07/05 04:50:30;;;;;;;0.10;0.10;;;;;;;31.18;64.76;98036.84;4993456;28;20436;-65
2021/07/05 04:52:57;;;;;;;0.10;0.10;;;;;;;31.28;65.28;98036.94;4996933;28;20034;-64
2021/07/05 04:55:24;;;;;;;0.10;0.10;;;;;;;30.61;64.61;98026.59;4996903;28;20109;-65
2021/07/05 04:57:51;;;;;;;0.10;0.10;;;;;;;30.34;64.19;98023.00;4995865;28;20037;-65
2021/07/05 05:00:29;;;;;;;0.10;0.10;;;;;;;30.52;65.02;98023.22;4996841;28;20037;-64
2021/07/05 05:02:55;;;;;;;0.10;0.10;;;;;;;31.01;65.81;98027.00;4997387;28;20114;-66
2021/07/05 05:05:22;;;;;;;0.10;0.10;;;;;;;30.92;66.49;98024.47;4996880;28;20058;-65
2021/07/05 05:07:49;;;;;;;0.10;0.10;;;;;;;31.26;68.24;98021.53;4996327;28;20031;-61
2021/07/05 05:10:19;;;;;;;0.10;0.10;;;;;;;31.04;66.76;98034.72;4993993;28;20065;-61
2021/07/05 05:12:45;;;;;;;0.10;0.10;;;;;;;30.88;66.65;98044.25;4996854;28;20037;-61
2021/07/05 05:15:12;;;;;;;0.10;0.10;;;;;;;30.85;67.88;98024.38;4996696;28;20062;-60
2021/07/05 05:17:38;;;;;;;0.10;0.10;;;;;;;31.10;68.39;98031.13;4996318;28;20022;-59
2021/07/05 05:20:07;;;;;;;0.10;0.10;;;;;;;31.11;67.30;98037.63;4996487;28;20041;-62
2021/07/05 05:22:33;;;;;;;0.10;0.10;;;;;;;30.99;67.68;98043.53;4978857;28;20038;-63
2021/07/05 05:24:58;;;;;;;0.10;0.10;;;;;;;30.91;67.45;98045.50;4978769;28;20042;-61
2021/07/05 05:27:24;;;;;;;0.30;0.30;;;;;;;31.04;67.82;98049.69;4996983;28;20023;-60
2021/07/05 05:29:50;;;;;;;0.10;0.10;;;;;;;31.00;66.95;98060.19;4996357;28;20104;-64
2021/07/05 05:32:16;;;;;;;0.10;0.10;;;;;;;30.51;66.81;98059.25;4996241;28;20038;-61
2021/07/05 05:34:42;;;;;;;0.10;0.10;;;;;;;30.68;67.75;98060.66;4996449;28;20031;-61
2021/07/05 05:37:08;;;;;;;0.10;0.10;;;;;;;31.33;68.16;98055.63;4995119;28;20026;-64
2021/07/05 05:39:33;;;;;;;0.10;0.10;;;;;;;31.54;67.60;98059.84;4995956;28;20043;-58
2021/07/05 05:41:59;;;;;;;0.10;0.10;;;;;;;31.27;67.43;98062.84;4996173;28;20033;-59
2021/07/05 05:44:25;;;;;;;0.10;0.10;;;;;;;31.15;68.11;98057.50;4995990;28;20428;-61
2021/07/05 05:46:51;;;;;;;0.10;0.10;;;;;;;31.12;67.72;98076.09;4996470;28;20030;-65
2021/07/05 05:49:17;;;;;;;0.00;0.00;;;;;;;30.86;66.82;98054.34;4996492;28;20045;-65
2021/07/05 05:51:43;;;;;;;0.10;0.10;;;;;;;30.09;67.66;98087.81;4995680;28;20038;-64
2021/07/05 05:54:10;;;;;;;0.10;0.10;;;;;;;29.60;68.47;98081.00;4978248;28;20070;-62
2021/07/05 05:56:38;;;;;;;0.10;0.10;;;;;;;29.20;68.08;98080.31;4996268;28;20452;-62
2021/07/05 05:59:06;;;;;;;0.10;0.10;;;;;;;28.23;68.63;98087.69;4994671;28;20035;-62
2021/07/05 06:01:33;;;;;;;0.20;0.20;;;;;;;26.27;67.46;98076.66;4995650;28;20126;-64
2021/07/05 06:04:00;;;;;;;0.25;0.25;;;;;;;23.66;69.04;98099.69;4994895;28;20030;-67
2021/07/05 06:06:26;;;;;;;0.10;0.10;;;;;;;21.43;72.40;98081.38;4995591;28;20117;-63
2021/07/05 06:08:52;;;;;;;0.00;0.00;;;;;;;20.04;76.30;98091.44;4978796;28;20122;-61
2021/07/05 06:11:19;;;;;;;0.10;0.10;;;;;;;19.21;78.90;98081.25;4995950;28;20022;-61
2021/07/05 06:13:45;;;;;;;0.10;0.10;;;;;;;18.55;80.07;98091.63;4995030;28;20043;-62
2021/07/05 06:16:11;;;;;;;0.10;0.10;;;;;;;18.25;82.25;98087.44;4994242;28;20044;-63
2021/07/05 06:18:37;;;;;;;0.10;0.10;;;;;;;18.03;83.54;98086.94;4995617;28;20030;-63
2021/07/05 06:21:03;;;;;;;0.10;0.10;;;;;;;17.83;84.36;98085.25;4973022;28;20385;-66
2021/07/05 06:23:29;;;;;;;0.10;0.10;;;;;;;17.68;84.75;98096.56;4974284;28;20511;-65
2021/07/05 06:25:56;;;;;;;0.10;0.10;;;;;;;17.50;85.37;98085.19;4992196;28;20038;-64
2021/07/05 06:28:24;;;;;;;0.10;0.10;;;;;;;17.28;85.44;98093.22;4992115;28;20034;-67
2021/07/05 06:30:50;;;;;;;0.10;0.10;;;;;;;17.02;86.05;98095.47;4991913;28;20043;-64
2021/07/05 06:33:18;;;;;;;0.10;0.10;;;;;;;16.90;86.66;98104.19;4992237;28;20041;-66
2021/07/05 06:35:45;;;;;;;0.10;0.10;;;;;;;16.80;87.08;98100.38;4974138;28;20042;-64
2021/07/05 06:38:12;;;;;;;0.10;0.10;;;;;;;16.71;87.65;98102.16;4991761;28;20559;-66
2021/07/05 06:40:39;;;;;;;0.10;0.10;;;;;;;16.63;87.72;98111.09;4974686;28;20508;-65
2021/07/05 06:43:05;;;;;;;0.10;0.10;;;;;;;16.49;87.68;98110.09;4991465;28;20519;-64
2021/07/05 06:45:31;;;;;;;0.10;0.10;;;;;;;16.40;88.27;98107.13;4991976;28;20045;-63
2021/07/05 06:47:57;;;;;;;0.10;0.10;;;;;;;16.36;88.74;98106.09;4974322;28;20565;-65
2021/07/05 06:50:23;;;;;;;0.15;0.15;;;;;;;16.26;88.57;98101.44;4958294;28;20092;-68
2021/07/05 06:52:50;;;;;;;0.10;0.10;;;;;;;16.24;89.20;98100.94;4991279;28;20468;-68
2021/07/05 06:55:15;;;;;;;0.10;0.10;;;;;;;16.26;89.47;98107.00;4991370;28;20033;-69
2021/07/05 06:57:42;;;;;;;0.10;0.10;;;;;;;16.22;89.43;98111.44;4995107;28;20038;-68
2021/07/05 07:00:14;;;;;;;0.17;0.17;;;;;;;16.22;89.72;98075.44;4991333;28;20030;-68
2021/07/05 07:02:41;;;;;;;0.10;0.10;;;;;;;16.17;89.79;98105.97;4991167;28;20459;-68
2021/07/05 07:05:12;;;;;;;0.13;0.13;;;;;;;16.11;90.16;98106.00;4991534;28;20125;-69
2021/07/05 07:07:39;;;;;;;0.10;0.10;;;;;;;16.07;90.14;98104.91;4991312;28;20032;-66
2021/07/05 07:10:06;;;;;;;0.10;0.10;;;;;;;16.11;90.65;98099.63;4991711;28;20116;-69
2021/07/05 07:12:36;;;;;;;0.10;0.10;;;;;;;16.19;90.88;98115.63;4991944;28;20129;-66
2021/07/05 07:15:04;;;;;;;0.10;0.10;;;;;;;16.25;91.08;98095.09;4990583;28;20056;-70
2021/07/05 07:17:39;;;;;;;0.10;0.10;;;;;;;16.29;90.95;98111.94;4991442;28;20037;-68
2021/07/05 07:20:10;;;;;;;0.10;0.10;;;;;;;16.34;91.10;98108.31;4973953;28;20038;-66
2021/07/05 07:22:37;;;;;;;0.10;0.10;;;;;;;16.36;91.10;98136.56;4973417;28;20508;-68
2021/07/05 07:25:05;;;;;;;0.10;0.10;;;;;;;16.31;90.93;98123.56;4973018;28;20555;-68
2021/07/05 07:27:31;;;;;;;0.10;0.10;;;;;;;16.23;90.83;98110.34;4973734;28;20026;-71
2021/07/05 07:29:57;;;;;;;0.10;0.10;;;;;;;16.27;91.27;98119.72;4973416;28;20033;-69
2021/07/05 07:32:23;;;;;;;0.10;0.10;;;;;;;16.31;91.25;98125.50;4990967;28;20440;-70
2021/07/05 07:34:49;;;;;;;0.10;0.10;;;;;;;16.34;91.51;98109.16;4991111;28;20026;-70
2021/07/05 07:37:15;;;;;;;0.10;0.10;;;;;;;16.40;91.54;98118.22;4990522;28;20030;-68
2021/07/05 07:39:44;;;;;;;0.10;0.10;;;;;;;16.46;91.53;98139.25;4990809;28;20065;-67
2021/07/05 07:42:10;;;;;;;0.10;0.10;;;;;;;16.43;91.35;98123.19;4990756;28;20396;-69
2021/07/05 07:44:36;;;;;;;0.10;0.10;;;;;;;16.40;91.38;98135.69;4991164;28;20125;-68
2021/07/05 07:47:03;;;;;;;0.10;0.10;;;;;;;16.38;91.42;98115.75;4990941;28;20579;-69
2021/07/05 07:49:30;;;;;;;0.10;0.10;;;;;;;16.40;91.39;98118.22;4990902;28;20108;-68
2021/07/05 07:52:03;;;;;;;0.10;0.10;;;;;;;16.46;91.66;98134.53;4974060;28;20171;-68
2021/07/05 07:54:29;;;;;;;0.25;0.22;;;;;;;16.50;91.73;98129.22;4973868;28;20034;-67
2021/07/05 07:56:55;;;;;;;0.10;0.10;;;;;;;16.51;91.49;98144.72;4990212;28;20044;-69
2021/07/05 07:59:21;;;;;;;0.10;0.10;;;;;;;16.51;91.80;98127.28;4973225;28;20515;-69
2021/07/05 08:01:49;;;;;;;0.10;0.10;;;;;;;16.50;91.57;98131.16;4990353;28;20132;-67
2021/07/05 08:04:15;;;;;;;0.10;0.10;;;;;;;16.49;91.66;98138.66;4990816;28;20036;-68
2021/07/05 08:06:44;;;;;;;0.10;0.10;;;;;;;16.52;91.58;98137.25;4973588;28;20137;-69
2021/07/05 08:09:10;;;;;;;0.10;0.10;;;;;;;16.59;92.17;98141.34;4982097;28;20554;-69
2021/07/05 08:11:37;;;;;;;0.10;0.10;;;;;;;16.67;92.27;98145.44;4977693;28;20068;-68
2021/07/05 08:14:05;;;;;;;0.10;0.10;;;;;;;16.72;92.03;98131.50;4988544;28;20042;-67
2021/07/05 08:16:32;;;;;;;0.10;0.10;;;;;;;16.68;91.84;98149.88;4975236;28;20381;-69
2021/07/05 08:18:58;;;;;;;0.10;0.10;;;;;;;16.66;91.73;98135.44;4990894;28;20030;-71
2021/07/05 08:22:19;;;;;;;0.10;0.10;;;;;;;16.66;91.88;98143.75;4989686;28;20141;-71
2021/07/05 08:24:45;;;;;;;0.10;0.10;;;;;;;16.69;92.11;98147.91;4930584;29;20566;-68
2021/07/05 08:27:11;;;;;;;0.10;0.10;;;;;;;16.71;92.01;98154.81;4929306;29;20068;-67
2021/07/05 08:29:37;;;;;;;0.10;0.10;;;;;;;16.74;91.92;98156.16;4916364;29;20044;-65
2021/07/05 08:33:46;;;;;;;0.10;0.10;;;;;;;16.80;92.18;98155.84;5127405;27;20350;-69
2021/07/05 08:36:13;;;;;;;0.10;0.10;;;;;;;16.88;92.21;98153.59;5127503;28;20050;-69
2021/07/05 08:38:40;;;;;;;0.10;0.10;;;;;;;16.91;92.31;98153.00;5127892;28;20032;-69
2021/07/05 08:41:05;;;;;;;0.10;0.10;;;;;;;16.92;92.02;98158.25;5127494;28;20046;-72
2021/07/05 08:43:32;;;;;;;0.40;0.40;;;;;;;16.97;92.17;98149.03;5128121;28;20028;-71
2021/07/05 08:46:06;;;;;;;0.10;0.10;;;;;;;17.04;92.17;98163.41;5127286;28;20578;-69
2021/07/05 08:48:38;;;;;;;0.10;0.10;;;;;;;17.04;91.95;98155.06;5127361;28;20023;-70
2021/07/05 08:51:10;;;;;;;0.10;0.10;;;;;;;17.01;92.01;98157.63;5128191;28;20090;-71
2021/07/05 08:53:38;;;;;;;0.10;0.10;;;;;;;16.99;92.11;98152.38;5131462;28;20032;-69
2021/07/05 08:56:04;;;;;;;0.10;0.10;;;;;;;16.99;92.11;98166.25;5127764;28;20436;-72
2021/07/05 08:58:31;;;;;;;0.10;0.10;;;;;;;17.03;92.01;98150.63;5108645;28;20056;-72
2021/07/05 09:00:57;;;;;;;0.10;0.10;;;;;;;17.07;92.13;98157.25;5109231;28;20027;-64
2021/07/05 09:03:24;;;;;;;0.10;0.10;;;;;;;17.13;92.27;98160.81;5127215;28;20100;-67
2021/07/05 09:06:15;;;;;;;0.10;0.10;;;;;;;17.19;92.15;98167.94;5127549;28;20058;-65
2021/07/05 09:08:43;;;;;;;0.20;0.20;;;;;;;17.17;92.12;98157.16;5125637;27;20027;-63
2021/07/05 09:11:15;;;;;;;0.10;0.10;;;;;;;17.20;92.24;98152.16;5126859;28;20488;-63
2021/07/05 09:13:52;;;;;;;0.10;0.10;;;;;;;17.26;92.19;98159.28;5127033;28;20458;-66
2021/07/05 09:16:31;;;;;;;0.10;0.10;;;;;;;17.31;92.27;98156.44;5124498;28;20031;-67
2021/07/05 09:18:57;;;;;;;0.10;0.10;;;;;;;17.36;92.26;98161.94;5127466;27;20058;-65
2021/07/05 09:21:28;;;;;;;0.10;0.10;;;;;;;17.38;92.17;98167.19;5125599;28;20043;-66
2021/07/05 09:24:06;;;;;;;0.10;0.10;;;;;;;17.36;92.16;98161.94;5126570;28;20024;-68
2021/07/05 09:26:36;;;;;;;0.10;0.10;;;;;;;17.40;91.99;98160.25;5119269;27;20038;-65
2021/07/05 09:29:22;;;;;;;0.10;0.10;;;;;;;17.42;92.07;98171.84;5104667;28;20121;-63
2021/07/05 09:31:53;;;;;;;0.10;0.10;;;;;;;17.44;91.91;98160.47;5126034;27;20066;-65
2021/07/05 09:34:27;;;;;;;0.10;0.10;;;;;;;17.49;92.09;98166.78;5127610;28;20080;-68
2021/07/05 09:36:54;;;;;;;;;;;;;;;17.55;92.30;98175.03;5130707;28;20044;-71
2021/07/05 09:39:24;;;;;;;0.10;0.10;;;;;;;17.58;92.13;98169.72;5107884;28;20385;-66
2021/07/05 09:41:55;;;;;;;0.10;0.10;;;;;;;17.63;92.32;98172.44;5126216;28;20131;-65
2021/07/05 09:44:23;;;;;;;0.10;0.10;;;;;;;17.62;92.27;98169.94;5116912;28;20046;-69
2021/07/05 09:46:57;;;;;;;0.10;0.10;;;;;;;17.60;91.97;98178.56;5094653;28;20093;-65
2021/07/05 09:49:27;;;;;;;;;;;;;;;17.60;91.99;98170.25;5112622;28;20092;-69
2021/07/05 09:52:24;;;;;;;0.10;0.10;;;;;;;17.56;92.00;98168.38;5112283;28;19920;-67
2021/07/05 09:54:52;;;;;;;0.10;0.10;;;;;;;17.58;91.96;98179.97;5095194;28;20038;-68
2021/07/05 09:57:27;;;;;;;0.17;0.17;;;;;;;17.64;91.99;98171.31;5112804;28;20496;-67
2021/07/05 09:59:53;;;;;;;;;;;;;;;17.73;92.21;98184.53;5112612;28;20028;-69
2021/07/05 10:02:19;;;;;;;0.38;0.38;;;;;;;17.79;92.14;98177.78;5093121;28;19922;-70
2021/07/05 10:04:46;;;;;;;0.10;0.10;;;;;;;17.86;92.22;98189.38;5112059;28;20040;-70
2021/07/05 10:07:13;;;;;;;0.10;0.10;;;;;;;17.81;92.10;98167.22;5112135;28;20523;-71
2021/07/05 10:09:47;;;;;;;0.10;0.10;;;;;;;17.86;92.14;98187.41;5093683;28;20024;-72
2021/07/05 10:12:16;;;;;;;;;;;;;;;17.89;92.05;98174.88;5112848;28;20613;-72
2021/07/05 10:14:43;;;;;;;0.10;0.10;;;;;;;17.92;92.32;98160.44;5112848;28;19923;-77
2021/07/05 10:17:15;;;;;;;0.10;0.10;;;;;;;17.97;92.33;98160.34;5113031;27;20035;-70
2021/07/05 10:19:42;;;;;;;0.10;0.10;;;;;;;18.00;92.02;98192.25;5093014;28;20031;-70
2021/07/05 10:22:11;;;;;;;0.10;0.10;;;;;;;17.98;91.90;98167.56;5113377;28;20515;-69
2021/07/05 10:24:39;;;;;;;0.15;0.15;;;;;;;17.99;91.98;98179.47;5112781;28;20168;-70
2021/07/05 10:27:05;;;;;;;0.10;0.10;;;;;;;18.01;92.01;98171.69;5112798;28;20077;-67
2021/07/05 10:29:35;;;;;;;0.10;0.10;;;;;;;18.04;91.97;98171.09;5112577;28;20031;-70
2021/07/05 10:32:01;;;;;;;0.30;0.30;;;;;;;18.10;92.00;98183.78;5111824;28;20534;-69
2021/07/05 10:34:27;;;;;;;0.10;0.10;;;;;;;18.11;92.17;98188.22;5112793;28;20053;-68
2021/07/05 10:36:54;;;;;;;0.10;0.10;;;;;;;18.14;92.02;98198.72;5111979;28;20507;-70
2021/07/05 10:39:22;;;;;;;0.10;0.10;;;;;;;18.13;91.95;98179.59;5112566;28;20051;-71
2021/07/05 10:41:48;;;;;;;0.10;0.10;;;;;;;18.14;92.00;98182.06;5093994;28;20023;-68
2021/07/05 10:44:19;;;;;;;0.10;0.10;;;;;;;18.16;92.30;98185.34;5112107;28;20035;-69
2021/07/05 10:46:50;;;;;;;0.10;0.10;;;;;;;18.24;92.18;98191.38;5112464;28;20112;-69
2021/07/05 10:49:28;;;;;;;0.20;0.20;;;;;;;18.34;92.23;98186.50;5109565;28;20118;-69
2021/07/05 10:51:55;;;;;;;0.10;0.10;;;;;;;18.36;92.28;98184.22;5111958;28;20454;-68
2021/07/05 10:54:50;;;;;;;0.10;0.10;;;;;;;18.41;92.05;98185.28;5111758;28;20092;-68
2021/07/05 10:57:21;;;;;;;0.10;0.10;;;;;;;18.41;92.04;98188.06;5110689;28;20043;-68
2021/07/05 10:59:49;;;;;;;0.10;0.10;;;;;;;18.43;92.00;98192.16;5092011;28;20499;-69
2021/07/05 11:02:42;;;;;;;0.10;0.10;;;;;;;18.46;91.88;98188.81;5108884;27;20034;-65
2021/07/05 11:05:45;;;;;;;0.10;0.10;;;;;;;18.48;92.05;98203.22;5117220;28;20032;-70
2021/07/05 11:08:39;;;;;;;0.10;0.10;;;;;;;18.47;92.17;98190.44;5111616;28;20043;-68
2021/07/05 11:11:10;;;;;;;0.10;0.10;;;;;;;18.47;91.93;98184.88;5093371;28;20055;-71
2021/07/05 11:13:38;;;;;;;0.10;0.10;;;;;;;18.53;91.98;98183.66;5111616;28;20528;-70
2021/07/05 11:16:04;;;;;;;0.10;0.10;;;;;;;18.58;91.83;98179.16;5093082;28;20035;-72
2021/07/05 11:18:36;;;;;;;0.10;0.10;;;;;;;18.64;91.92;98194.63;5093725;28;20039;-68
2021/07/05 11:21:07;;;;;;;0.10;0.10;;;;;;;18.68;92.07;98187.34;5093077;28;20489;-73
2021/07/05 11:23:59;;;;;;;0.10;0.10;;;;;;;18.71;91.77;98189.50;5093075;28;20144;-70
2021/07/05 11:26:29;;;;;;;0.10;0.10;;;;;;;18.72;91.76;98186.41;5113709;28;20043;-75
2021/07/05 11:29:14;;;;;;;0.10;0.10;;;;;;;18.73;91.66;98190.84;5093777;28;20031;-70
2021/07/05 11:31:58;;;;;;;0.25;0.25;;;;;;;18.67;91.52;98194.03;5111066;28;20078;-75
2021/07/05 11:34:38;;;;;;;0.28;0.28;;;;;;;18.63;91.77;98193.00;5110975;28;20032;-73
2021/07/05 11:37:21;;;;;;;0.30;0.30;;;;;;;18.64;91.69;98189.91;5110984;28;20042;-64
2021/07/05 11:39:50;;;;;;;0.10;0.10;;;;;;;18.67;91.70;98199.59;5111257;28;20032;-63
2021/07/05 11:42:42;;;;;;;0.10;0.10;;;;;;;18.72;91.53;98185.59;5092343;28;20118;-61
2021/07/05 11:45:10;;;;;;;0.10;0.10;;;;;;;18.72;91.80;98191.16;5109997;28;20030;-66